Time;durP1;ratioP1;P1;durP2;ratioP2;P2;SDS_P1;SDS_P2;PMS_P1;PMS_P2;Temp;Humidity;BMP_temperature;BMP_pressure;BME280_temperature;BME280_humidity;BME280_pressure;Samples;Min_cycle;Max_cycle;Signal;HPM_P1;HPM_P2
2022/08/30 00:01:01;;;;;;;2.17;1.47;;;;;;;16.58;67.99;101975.69;5074707;28;20024;-89
2022/08/30 00:02:00;;;;;;;1.40;1.30;;;;;;;16.55;68.13;101968.78;5074445;28;20033;-88
2022/08/30 00:04:26;;;;;;;1.57;1.47;;;;;;;16.53;70.03;101967.94;5075053;28;20024;-88
2022/08/30 00:06:51;;;;;;;1.50;1.40;;;;;;;16.51;69.51;101964.50;5074675;28;20028;-88
2022/08/30 00:09:16;;;;;;;1.43;1.27;;;;;;;16.48;69.67;101954.94;5074544;28;20059;-88
2022/08/30 00:11:42;;;;;;;1.43;1.33;;;;;;;16.48;70.52;101957.56;5074684;28;20078;-88
2022/08/30 00:14:07;;;;;;;1.23;1.17;;;;;;;16.45;69.74;101959.41;5072965;28;20035;-89
2022/08/30 00:16:32;;;;;;;1.53;1.20;;;;;;;16.42;69.08;101959.47;5074164;28;20024;-89
2022/08/30 00:18:58;;;;;;;1.40;1.30;;;;;;;16.40;69.63;101967.38;5074330;28;20033;-89
2022/08/30 00:21:25;;;;;;;1.50;1.40;;;;;;;16.40;68.83;101954.28;5073388;28;20024;-88
2022/08/30 00:23:51;;;;;;;1.50;1.40;;;;;;;16.39;69.62;101960.41;5074261;28;20021;-88
2022/08/30 00:26:16;;;;;;;1.40;1.30;;;;;;;16.39;69.70;101967.38;5074428;28;20154;-88
2022/08/30 00:28:42;;;;;;;1.50;1.40;;;;;;;16.36;69.81;101963.06;5073586;28;20025;-88
2022/08/30 00:31:07;;;;;;;1.37;1.30;;;;;;;16.33;69.72;101961.41;5073804;28;20029;-89
2022/08/30 00:33:32;;;;;;;1.53;1.43;;;;;;;16.29;69.67;101962.34;5074198;28;20101;-89
2022/08/30 00:35:58;;;;;;;1.63;1.10;;;;;;;16.29;69.61;101969.34;5073053;28;20052;-89
2022/08/30 00:38:23;;;;;;;1.30;1.30;;;;;;;16.26;70.58;101965.06;5073706;28;20047;-89
2022/08/30 00:40:49;;;;;;;1.37;1.27;;;;;;;16.24;70.37;101964.22;5073779;28;20111;-89
2022/08/30 00:43:23;;;;;;;0.90;0.90;;;;;;;16.24;70.55;101965.97;5072793;28;20035;-89
2022/08/30 00:45:49;;;;;;;0.98;0.98;;;;;;;16.21;70.91;101965.13;5073801;28;20062;-88
2022/08/30 00:48:14;;;;;;;1.05;1.00;;;;;;;16.19;70.63;101963.44;5073739;28;20024;-88
2022/08/30 00:50:52;;;;;;;1.10;1.10;;;;;;;16.18;71.01;101961.72;5072737;28;20035;-90
2022/08/30 00:53:24;;;;;;;1.05;1.00;;;;;;;16.17;70.10;101963.47;5073964;28;20027;-88
2022/08/30 00:55:52;;;;;;;1.17;1.08;;;;;;;16.16;70.37;101968.72;5072938;28;20021;-89
2022/08/30 00:58:21;;;;;;;1.10;1.00;;;;;;;16.15;70.77;101970.50;5073525;28;20020;-89
2022/08/30 01:00:52;;;;;;;0.95;0.95;;;;;;;16.14;70.35;101968.78;5073670;28;20146;-89
2022/08/30 01:03:18;;;;;;;1.85;1.20;;;;;;;16.14;70.32;101970.53;5073815;28;20016;-89
2022/08/30 01:05:44;;;;;;;1.33;1.23;;;;;;;16.13;70.30;101972.28;5073896;28;20025;-90
2022/08/30 01:08:10;;;;;;;1.17;1.08;;;;;;;16.14;69.95;101970.53;5073405;28;20119;-89
2022/08/30 01:10:37;;;;;;;1.00;1.00;;;;;;;16.15;70.55;101975.75;5072688;28;20044;-88
2022/08/30 01:13:03;;;;;;;1.40;1.30;;;;;;;16.15;70.11;101978.34;5073840;28;20083;-88
2022/08/30 01:15:31;;;;;;;1.25;1.10;;;;;;;16.16;70.86;101977.47;5073524;28;20025;-88
2022/08/30 01:17:57;;;;;;;1.23;1.13;;;;;;;16.17;71.19;101973.97;5072461;28;20034;-89
2022/08/30 01:20:28;;;;;;;1.08;1.08;;;;;;;16.18;71.76;101973.06;5073592;28;20098;-88
2022/08/30 01:22:53;;;;;;;1.15;1.00;;;;;;;16.19;71.22;101980.03;5073439;28;20027;-88
2022/08/30 01:25:24;;;;;;;3.20;2.10;;;;;;;16.20;73.29;101983.50;5072893;28;20025;-88
2022/08/30 01:27:56;;;;;;;1.70;1.60;;;;;;;16.19;72.66;101984.38;5072685;28;20406;-89
2022/08/30 01:30:22;;;;;;;1.60;1.50;;;;;;;16.18;72.14;101980.94;5073077;28;20529;-89
2022/08/30 01:32:50;;;;;;;;;;;;;;;16.21;71.38;101987.84;5073233;28;20035;-88
2022/08/30 01:35:17;;;;;;;1.60;1.50;;;;;;;16.21;74.08;101980.84;5073142;28;19916;-88
2022/08/30 01:37:43;;;;;;;;;;;;;;;16.21;72.03;101980.84;5073179;28;20048;-88
2022/08/30 01:40:09;;;;;;;1.23;1.15;;;;;;;16.21;73.83;101977.38;5072133;28;20021;-89
2022/08/30 01:42:35;;;;;;;1.15;1.15;;;;;;;16.18;72.59;101973.06;5073065;28;20037;-88
2022/08/30 01:45:00;;;;;;;1.60;1.50;;;;;;;16.16;73.36;101974.84;5072718;28;20021;-89
2022/08/30 01:47:26;;;;;;;2.00;1.40;;;;;;;16.15;73.36;101967.03;5073270;28;20047;-88
2022/08/30 01:49:51;;;;;;;1.03;1.03;;;;;;;16.12;73.92;101972.31;5072870;28;20031;-88
2022/08/30 01:52:17;;;;;;;1.10;1.10;;;;;;;16.11;73.68;101975.84;5072044;28;20047;-88
2022/08/30 01:54:44;;;;;;;1.90;1.70;;;;;;;16.09;75.67;101977.63;5074992;28;20028;-88
2022/08/30 01:57:13;;;;;;;1.40;1.30;;;;;;;16.07;73.59;101975.03;5076877;28;20024;-88
2022/08/30 01:59:42;;;;;;;1.23;1.13;;;;;;;16.07;72.76;101980.28;5076595;28;20028;-89
2022/08/30 02:02:08;;;;;;;1.50;1.40;;;;;;;16.06;73.48;101978.56;5076248;28;20039;-88
2022/08/30 02:04:35;;;;;;;1.70;1.60;;;;;;;16.04;73.68;101977.72;5076905;28;20524;-88
2022/08/30 02:07:01;;;;;;;1.70;1.60;;;;;;;16.03;72.67;101973.38;5076215;28;20025;-89
2022/08/30 02:09:26;;;;;;;1.60;1.50;;;;;;;16.01;72.53;101968.19;5076608;28;20495;-88
2022/08/30 02:11:52;;;;;;;2.20;1.70;;;;;;;16.02;72.44;101963.78;5076268;28;20020;-89
2022/08/30 02:14:17;;;;;;;1.40;1.30;;;;;;;16.01;72.78;101964.69;5076077;28;20024;-88
2022/08/30 02:16:42;;;;;;;1.40;1.30;;;;;;;16.00;74.63;101957.72;5076885;28;20028;-89
2022/08/30 02:19:08;;;;;;;1.70;1.60;;;;;;;15.99;75.44;101961.22;5076053;28;20039;-89
2022/08/30 02:21:33;;;;;;;2.27;2.00;;;;;;;15.97;75.32;101963.03;5075683;28;20044;-88
2022/08/30 02:23:58;;;;;;;2.03;1.83;;;;;;;15.94;75.43;101960.47;5076167;28;20496;-87
2022/08/30 02:26:24;;;;;;;2.30;2.00;;;;;;;15.88;74.39;101958.84;5076409;28;20103;-89
2022/08/30 02:28:50;;;;;;;2.57;1.90;;;;;;;15.88;73.80;101964.91;5075799;28;20040;-88
2022/08/30 02:31:20;;;;;;;1.70;1.60;;;;;;;15.88;73.44;101959.69;5076250;28;20033;-89
2022/08/30 02:33:47;;;;;;;1.75;1.63;;;;;;;15.90;73.10;101962.28;5076335;28;20029;-88
2022/08/30 02:36:12;;;;;;;;;;;;;;;15.89;73.77;101956.19;5075622;28;20100;-89
2022/08/30 02:38:38;;;;;;;1.43;1.33;;;;;;;15.87;73.95;101957.09;5075962;28;19958;-88
2022/08/30 02:41:03;;;;;;;1.30;1.20;;;;;;;15.86;73.75;101958.00;5076175;28;20085;-88
2022/08/30 02:43:29;;;;;;;1.30;1.20;;;;;;;15.84;73.09;101952.81;5075849;28;20025;-89
2022/08/30 02:45:54;;;;;;;1.00;1.00;;;;;;;15.83;73.04;101960.63;5075479;28;20052;-89
2022/08/30 02:48:20;;;;;;;1.00;1.00;;;;;;;15.81;73.23;101957.22;5075641;28;20032;-89
2022/08/30 02:50:52;;;;;;;1.75;1.65;;;;;;;15.77;74.71;101961.63;5075736;28;20074;-88
2022/08/30 02:53:19;;;;;;;1.40;1.27;;;;;;;15.75;73.72;101955.56;5076035;28;20024;-89
2022/08/30 02:55:57;;;;;;;1.38;1.27;;;;;;;15.73;74.20;101955.59;5074757;28;20032;-90
2022/08/30 02:58:30;;;;;;;1.95;1.70;;;;;;;15.69;74.28;101943.47;5075975;28;20025;-89
2022/08/30 03:01:04;;;;;;;1.40;1.30;;;;;;;15.70;73.80;101946.94;5075282;28;20108;-88
2022/08/30 03:03:30;;;;;;;1.08;1.00;;;;;;;15.68;74.19;101938.25;5074661;28;20028;-88
2022/08/30 03:06:04;;;;;;;1.50;1.40;;;;;;;15.65;75.64;101930.47;5075278;28;20099;-87
2022/08/30 03:08:33;;;;;;;1.95;1.85;;;;;;;15.62;78.16;101938.38;5075719;28;20480;-89
2022/08/30 03:11:12;;;;;;;2.10;1.90;;;;;;;15.61;76.60;101932.25;5074817;28;20082;-89
2022/08/30 03:13:40;;;;;;;2.08;1.80;;;;;;;15.57;76.25;101934.06;5075378;28;20512;-89
2022/08/30 03:16:17;;;;;;;1.60;1.50;;;;;;;15.57;75.64;101934.06;5075598;28;20020;-88
2022/08/30 03:18:43;;;;;;;1.45;1.40;;;;;;;15.55;74.63;101935.84;5074950;28;20031;-89
2022/08/30 03:21:10;;;;;;;1.27;1.20;;;;;;;15.57;75.11;101928.00;5074765;28;20028;-88
2022/08/30 03:23:42;;;;;;;2.00;1.80;;;;;;;15.53;75.94;101937.66;5074742;28;20024;-88
2022/08/30 03:26:13;;;;;;;1.48;1.38;;;;;;;15.55;75.02;101940.25;5075373;28;20032;-88
2022/08/30 03:28:42;;;;;;;1.20;1.20;;;;;;;15.54;75.26;101941.97;5074945;28;20029;-88
2022/08/30 03:31:10;;;;;;;1.20;1.10;;;;;;;15.57;74.32;101936.69;5074204;28;20115;-88
2022/08/30 03:33:48;;;;;;;1.23;1.23;;;;;;;15.57;74.96;101936.69;5075177;28;20027;-88
2022/08/30 03:36:22;;;;;;;1.42;1.42;;;;;;;15.58;74.63;101941.03;5074724;28;20124;-88
2022/08/30 03:38:53;;;;;;;1.33;1.23;;;;;;;15.61;74.39;101945.34;5074181;28;20515;-89
2022/08/30 03:41:27;;;;;;;1.30;1.30;;;;;;;15.62;74.61;101941.00;5074931;28;20033;-88
2022/08/30 03:43:53;;;;;;;1.08;1.08;;;;;;;15.63;75.18;101937.47;5074551;28;20078;-89
2022/08/30 03:46:18;;;;;;;0.90;0.90;;;;;;;15.64;75.22;101934.81;5074583;28;20107;-89
2022/08/30 03:48:51;;;;;;;1.33;1.23;;;;;;;15.64;75.48;101936.59;5075244;28;20101;-89
2022/08/30 03:51:17;;;;;;;1.10;1.10;;;;;;;15.62;77.32;101930.53;5074910;28;20119;-89
2022/08/30 03:53:45;;;;;;;1.70;1.60;;;;;;;15.60;74.91;101933.16;5073870;28;20056;-88
2022/08/30 03:56:17;;;;;;;1.48;1.38;;;;;;;15.63;74.85;101937.47;5073968;28;20560;-89
2022/08/30 03:58:49;;;;;;;1.42;1.33;;;;;;;15.58;74.47;101930.56;5074172;28;20055;-88
2022/08/30 04:01:25;;;;;;;2.10;2.00;;;;;;;15.57;77.67;101941.94;5074464;28;20095;-88
2022/08/30 04:03:55;;;;;;;2.65;2.00;;;;;;;15.52;76.46;101935.94;5074357;28;20162;-89
2022/08/30 04:06:27;;;;;;;1.90;1.80;;;;;;;15.53;75.52;101942.00;5074079;28;20402;-89
2022/08/30 04:08:53;;;;;;;1.55;1.45;;;;;;;15.53;75.11;101940.28;5074175;28;20021;-88
2022/08/30 04:11:19;;;;;;;1.60;1.50;;;;;;;15.51;75.15;101936.81;5074390;28;20382;-89
2022/08/30 04:13:45;;;;;;;1.60;1.50;;;;;;;15.52;74.76;101940.28;5068511;28;20062;-89
2022/08/30 04:16:10;;;;;;;1.40;1.33;;;;;;;15.51;75.57;101944.66;5074130;28;20129;-89
2022/08/30 04:18:35;;;;;;;1.53;1.43;;;;;;;15.52;74.96;101946.41;5073880;28;20020;-89
2022/08/30 04:21:02;;;;;;;1.50;1.40;;;;;;;15.50;74.75;101948.19;5072742;28;20052;-89
2022/08/30 04:23:31;;;;;;;1.00;1.00;;;;;;;15.48;74.62;101936.88;5074301;28;20027;-88
2022/08/30 04:26:10;;;;;;;1.50;1.40;;;;;;;15.44;75.43;101943.03;5074256;28;20020;-89
2022/08/30 04:28:36;;;;;;;1.20;1.20;;;;;;;15.43;75.07;101942.19;5073501;28;20012;-88
2022/08/30 04:31:10;;;;;;;1.37;1.27;;;;;;;15.42;76.35;101950.06;5073602;28;20021;-88
2022/08/30 04:33:36;;;;;;;1.10;1.10;;;;;;;15.38;75.36;101951.84;5074267;28;20441;-89
2022/08/30 04:36:04;;;;;;;1.30;1.30;;;;;;;15.38;76.42;101951.84;5073350;28;20119;-89
2022/08/30 04:38:30;;;;;;;0.80;0.80;;;;;;;15.37;75.09;101952.75;5073711;28;20322;-88
2022/08/30 04:40:55;;;;;;;0.88;0.88;;;;;;;15.36;75.31;101958.00;5073212;28;20017;-88
2022/08/30 04:43:21;;;;;;;1.70;1.60;;;;;;;15.33;77.28;101956.31;5074186;28;20032;-90
2022/08/30 04:45:47;;;;;;;1.63;1.53;;;;;;;15.32;77.01;101954.59;5073574;28;20473;-89
2022/08/30 04:48:12;;;;;;;2.13;1.93;;;;;;;15.31;77.52;101954.63;5072975;28;20399;-88
2022/08/30 04:50:44;;;;;;;1.50;1.40;;;;;;;15.29;75.92;101960.75;5072544;28;20716;-90
2022/08/30 04:53:21;;;;;;;1.40;1.30;;;;;;;15.28;77.05;101953.78;5072021;28;20032;-90
2022/08/30 04:55:46;;;;;;;1.40;1.40;;;;;;;15.27;76.17;101957.28;5072969;28;20081;-89
2022/08/30 04:58:21;;;;;;;1.50;1.40;;;;;;;15.26;75.92;101966.03;5073060;28;20062;-89
2022/08/30 05:00:46;;;;;;;1.70;1.60;;;;;;;15.29;76.41;101967.72;5073711;28;20029;-89
2022/08/30 05:03:11;;;;;;;1.30;1.20;;;;;;;15.27;75.87;101959.91;5072788;28;20016;-87
2022/08/30 05:05:49;;;;;;;2.83;2.20;;;;;;;15.27;78.22;101972.97;5073132;28;20136;-86
2022/08/30 05:08:18;;;;;;;2.38;2.17;;;;;;;15.25;77.06;101968.69;5072804;28;20487;-85
2022/08/30 05:10:50;;;;;;;1.88;1.77;;;;;;;15.26;76.27;101963.41;5071893;28;20029;-85
2022/08/30 05:13:18;;;;;;;2.17;1.80;;;;;;;15.25;76.64;101969.53;5072571;28;20036;-85
2022/08/30 05:15:44;;;;;;;1.90;1.80;;;;;;;15.26;75.90;101973.88;5072707;28;20032;-85
2022/08/30 05:18:10;;;;;;;1.77;1.67;;;;;;;15.26;76.58;101973.88;5071852;28;20028;-85
2022/08/30 05:20:36;;;;;;;2.03;1.83;;;;;;;15.27;78.88;101969.50;5072765;28;20066;-85
2022/08/30 05:23:02;;;;;;;5.28;2.78;;;;;;;15.25;76.97;101979.13;5071914;28;20025;-85
2022/08/30 05:25:33;;;;;;;2.50;2.20;;;;;;;15.24;76.61;101972.19;5072242;28;20473;-85
2022/08/30 05:27:59;;;;;;;2.17;2.00;;;;;;;15.23;76.92;101975.69;5072492;28;20314;-84
2022/08/30 05:30:26;;;;;;;3.77;2.67;;;;;;;15.21;77.95;101980.91;5071665;28;20064;-85
2022/08/30 05:32:52;;;;;;;3.35;2.33;;;;;;;15.22;77.64;101987.03;5071934;28;20025;-85
2022/08/30 05:35:19;;;;;;;2.20;2.00;;;;;;;15.24;77.15;101990.50;5072272;28;20385;-85
2022/08/30 05:37:44;;;;;;;;;;;;;;;15.26;78.67;101992.19;5071956;28;20045;-85
2022/08/30 05:40:11;;;;;;;8.73;3.53;;;;;;;15.28;77.62;101989.53;5071738;28;19943;-85
2022/08/30 05:42:37;;;;;;;6.10;3.45;;;;;;;15.33;78.86;101986.81;5072464;28;20134;-85
2022/08/30 05:45:04;;;;;;;3.92;2.72;;;;;;;15.36;77.35;101992.91;5071080;28;20021;-85
2022/08/30 05:47:30;;;;;;;8.73;5.13;;;;;;;15.38;79.15;101991.09;5072537;28;20107;-85
2022/08/30 05:49:55;;;;;;;6.67;3.97;;;;;;;15.42;77.10;101990.16;5072106;28;20027;-85
2022/08/30 05:52:20;;;;;;;8.60;5.37;;;;;;;15.42;79.74;101982.31;5071538;28;20189;-85
2022/08/30 05:54:52;;;;;;;5.70;3.67;;;;;;;15.47;78.32;101994.47;5071909;28;20016;-85
2022/08/30 05:57:17;;;;;;;3.92;3.10;;;;;;;15.51;78.80;101989.16;5072841;28;20031;-88
2022/08/30 05:59:43;;;;;;;3.10;2.80;;;;;;;15.56;79.30;101989.91;5072652;28;20017;-90
2022/08/30 06:02:08;;;;;;;3.73;3.07;;;;;;;15.57;78.40;101991.63;5072742;28;20059;-91
2022/08/30 06:04:35;;;;;;;4.40;3.27;;;;;;;15.58;79.95;101985.53;5072736;28;20449;-83
2022/08/30 06:07:01;;;;;;;13.68;7.60;;;;;;;15.50;80.17;101997.00;5071376;28;20020;-86
2022/08/30 06:09:27;;;;;;;8.77;5.38;;;;;;;15.51;79.26;101996.13;5072500;28;20104;-86
2022/08/30 06:11:52;;;;;;;10.10;5.70;;;;;;;15.51;79.41;101988.25;5072183;28;20115;-89
2022/08/30 06:14:17;;;;;;;5.20;3.80;;;;;;;15.54;79.35;101988.22;5071739;28;20078;-87
2022/08/30 06:16:44;;;;;;;5.30;3.80;;;;;;;15.63;79.06;101992.44;5072535;28;20070;-88
2022/08/30 06:19:10;;;;;;;8.48;5.53;;;;;;;15.63;80.26;101995.91;5071991;28;20439;-87
2022/08/30 06:21:36;;;;;;;12.93;6.95;;;;;;;15.62;80.68;101995.94;5072128;28;20099;-86
2022/08/30 06:24:04;;;;;;;11.00;6.28;;;;;;;15.64;80.00;102002.00;5073161;28;20056;-91
2022/08/30 06:26:31;;;;;;;15.23;8.55;;;;;;;15.60;81.05;101988.97;5072826;28;20028;-91
2022/08/30 06:28:57;;;;;;;16.20;9.43;;;;;;;15.54;80.74;101994.31;5073004;28;20031;-90
2022/08/30 06:31:24;;;;;;;13.70;7.47;;;;;;;15.60;80.13;101993.31;5073386;28;20025;-90
2022/08/30 06:33:51;;;;;;;14.93;9.10;;;;;;;15.62;80.37;101990.72;5073360;28;20085;-96
2022/08/30 06:36:19;;;;;;;15.32;8.63;;;;;;;15.63;81.38;101995.06;5073034;28;20020;-89
2022/08/30 06:38:46;;;;;;;16.38;9.00;;;;;;;15.66;81.34;101997.59;5072769;28;20040;-90
2022/08/30 06:41:17;;;;;;;15.43;8.25;;;;;;;15.73;79.66;101992.22;5074155;28;20027;-93
2022/08/30 06:43:42;;;;;;;9.55;6.40;;;;;;;15.82;79.88;101985.13;5076786;28;20488;-92
2022/08/30 06:46:10;;;;;;;10.23;6.10;;;;;;;15.93;80.35;101990.16;5076319;28;20025;-88
2022/08/30 06:48:35;;;;;;;9.70;6.10;;;;;;;16.00;79.40;101994.38;5082084;22;20137;-90
2022/08/30 06:51:21;;;;;;;15.10;8.60;;;;;;;16.00;79.46;101984.78;5076144;28;20053;-91
2022/08/30 06:53:56;;;;;;;13.93;8.55;;;;;;;16.08;79.26;101992.47;5075911;28;20162;-93
2022/08/30 06:56:22;;;;;;;14.20;7.90;;;;;;;16.14;79.02;101988.88;5075490;28;20016;-92
2022/08/30 06:58:53;;;;;;;13.10;7.57;;;;;;;16.19;79.06;101990.50;5076438;28;20525;-92
2022/08/30 07:01:39;;;;;;;13.73;8.23;;;;;;;16.26;78.15;101990.38;5076410;28;20013;-88
2022/08/30 07:04:04;;;;;;;15.20;8.20;;;;;;;16.27;78.50;101992.94;5067245;28;20020;-92
2022/08/30 07:06:49;;;;;;;13.47;7.77;;;;;;;16.46;78.89;101993.41;5076286;28;20122;-86
2022/08/30 07:09:14;;;;;;;9.68;6.10;;;;;;;17.59;76.92;101996.03;5067886;28;20024;-94
2022/08/30 07:12:00;;;;;;;13.50;7.30;;;;;;;19.27;70.87;101988.47;5056619;28;20029;-94
2022/08/30 07:14:26;;;;;;;9.75;5.65;;;;;;;20.57;64.94;101996.97;5056159;28;20163;-92
2022/08/30 07:16:51;;;;;;;8.47;5.47;;;;;;;21.63;62.48;101985.63;5055534;28;20059;-93
2022/08/30 07:19:16;;;;;;;9.37;5.70;;;;;;;22.04;61.64;101996.16;5056547;28;20107;-96
2022/08/30 07:21:49;;;;;;;6.63;4.70;;;;;;;22.27;59.80;101996.00;5056320;28;20029;-94
2022/08/30 07:24:14;;;;;;;9.63;6.00;;;;;;;21.25;58.97;102002.16;5056329;28;20071;-94
2022/08/30 07:26:42;;;;;;;11.40;6.07;;;;;;;20.27;61.90;102015.69;5056461;28;20108;-93
2022/08/30 07:29:17;;;;;;;10.00;5.38;;;;;;;19.67;64.62;102012.56;5055592;28;20105;-95
2022/08/30 07:31:43;;;;;;;4.97;3.85;;;;;;;19.31;66.32;101997.97;5054815;28;20500;-94
2022/08/30 07:34:08;;;;;;;4.15;3.50;;;;;;;19.13;66.61;102008.19;5055415;28;20021;-93
2022/08/30 07:36:36;;;;;;;7.63;4.90;;;;;;;18.80;67.41;102015.41;5055668;28;20106;-95
2022/08/30 07:39:17;;;;;;;7.32;4.70;;;;;;;18.53;68.17;102007.44;5069322;28;20051;-95
2022/08/30 07:41:43;;;;;;;9.65;5.95;;;;;;;18.20;69.31;102013.63;5075843;28;20021;-94
2022/08/30 07:44:08;;;;;;;8.00;5.05;;;;;;;18.17;69.28;102005.84;5074888;28;20032;-96
2022/08/30 07:46:34;;;;;;;7.23;4.93;;;;;;;18.05;69.80;102007.06;5075513;28;20024;-94
2022/08/30 07:49:12;;;;;;;10.15;5.30;;;;;;;17.96;70.22;102007.28;5074555;28;20617;-95
2022/08/30 07:51:38;;;;;;;7.35;5.00;;;;;;;17.97;70.91;102002.91;5074690;28;20094;-93
2022/08/30 07:54:04;;;;;;;9.32;5.72;;;;;;;17.98;70.78;102013.41;5067130;28;20025;-95
2022/08/30 07:56:36;;;;;;;11.20;6.20;;;;;;;18.05;70.75;102012.31;5075274;28;20050;-96
2022/08/30 07:59:01;;;;;;;8.30;4.50;;;;;;;18.21;70.03;102015.34;5075660;28;20020;-96
2022/08/30 08:01:26;;;;;;;7.43;4.73;;;;;;;18.26;70.10;102011.75;5076182;28;20020;-95
2022/08/30 08:03:52;;;;;;;5.53;3.93;;;;;;;18.35;69.69;102014.09;5075255;28;20033;-95
2022/08/30 08:06:35;;;;;;;7.80;4.93;;;;;;;18.43;69.45;102021.75;5073437;28;20032;-93
2022/08/30 08:09:00;;;;;;;7.88;4.57;;;;;;;18.57;68.97;102016.97;5075447;28;20024;-95
2022/08/30 08:11:27;;;;;;;9.90;6.03;;;;;;;18.43;69.16;102027.03;5076219;28;20025;-94
2022/08/30 08:14:05;;;;;;;9.68;5.20;;;;;;;18.51;69.12;102019.75;5074188;28;20020;-94
2022/08/30 08:16:32;;;;;;;8.05;4.50;;;;;;;18.63;69.11;102013.28;5074879;28;20032;-94
2022/08/30 08:18:58;;;;;;;5.20;3.78;;;;;;;18.72;68.89;102018.25;5074256;28;20021;-95
2022/08/30 08:21:32;;;;;;;6.40;4.43;;;;;;;18.78;68.43;102015.41;5075523;28;20031;-96
2022/08/30 08:23:57;;;;;;;6.38;4.05;;;;;;;18.85;68.09;102013.47;5074820;28;20016;-94
2022/08/30 08:26:37;;;;;;;6.20;3.80;;;;;;;18.96;68.12;102018.44;5074400;28;20021;-96
2022/08/30 08:29:03;;;;;;;7.45;4.05;;;;;;;19.06;67.61;102021.59;5075116;28;20492;-94
2022/08/30 08:31:29;;;;;;;6.25;3.90;;;;;;;19.20;67.08;102023.78;5074626;28;20028;-94
2022/08/30 08:33:55;;;;;;;6.07;4.13;;;;;;;19.26;66.11;102031.50;5074532;28;20020;-95
2022/08/30 08:36:30;;;;;;;;;;;;;;;19.39;67.06;102029.28;5076514;28;20031;-95
2022/08/30 08:38:55;;;;;;;6.30;3.35;;;;;;;19.53;65.00;102024.44;5074925;28;19940;-92
2022/08/30 08:42:02;;;;;;;7.17;4.30;;;;;;;19.60;64.98;102035.63;5074482;28;20044;-96
2022/08/30 08:45:07;;;;;;;6.35;4.10;;;;;;;19.66;64.64;102029.28;5075298;28;20025;-95
2022/08/30 08:47:40;;;;;;;8.68;4.47;;;;;;;19.70;64.72;102025.63;5073432;28;20040;-90
2022/08/30 08:50:18;;;;;;;4.30;3.20;;;;;;;19.74;64.40;102033.38;5063600;28;20056;-89
2022/08/30 08:55:34;;;;;;;4.38;3.40;;;;;;;19.71;62.90;102038.75;5064846;28;20120;-90
2022/08/30 08:58:00;;;;;;;3.42;2.80;;;;;;;19.74;63.77;102038.63;5073238;28;20033;-90
2022/08/30 09:00:25;;;;;;;3.88;2.90;;;;;;;19.76;62.52;102041.22;5072738;28;20057;-90
2022/08/30 09:03:00;;;;;;;3.83;2.87;;;;;;;19.82;62.91;102050.66;5061149;28;20503;-91
2022/08/30 09:05:30;;;;;;;9.02;3.80;;;;;;;19.74;62.28;102040.41;5055114;28;20056;-88
2022/08/30 09:08:01;;;;;;;3.17;2.60;;;;;;;19.87;62.96;102031.19;5055166;28;20021;-90
2022/08/30 09:10:28;;;;;;;3.08;2.42;;;;;;;20.03;61.26;102033.28;5073198;28;20024;-90
2022/08/30 09:12:54;;;;;;;6.80;4.30;;;;;;;20.07;61.24;102040.13;5073548;28;20024;-90
2022/08/30 09:15:26;;;;;;;4.17;2.93;;;;;;;20.14;62.17;102038.16;5073033;28;20209;-89
2022/08/30 09:17:57;;;;;;;3.95;3.10;;;;;;;20.27;61.06;102044.69;5072850;28;20056;-88
2022/08/30 09:20:26;;;;;;;5.45;3.00;;;;;;;20.42;61.35;102030.06;5073462;28;20136;-88
2022/08/30 09:22:51;;;;;;;6.25;3.80;;;;;;;20.51;59.36;102037.63;5072559;28;20016;-90
2022/08/30 09:25:24;;;;;;;6.10;3.40;;;;;;;20.54;59.58;102034.03;5073343;28;20055;-89
2022/08/30 09:27:51;;;;;;;5.25;3.22;;;;;;;20.58;59.83;102032.97;5063215;28;20047;-91
2022/08/30 09:30:23;;;;;;;4.95;3.20;;;;;;;20.67;59.97;102031.75;5072060;28;20028;-89
2022/08/30 09:32:55;;;;;;;6.95;3.05;;;;;;;20.83;59.09;102040.81;5060921;28;20036;-88
2022/08/30 09:35:44;;;;;;;3.92;3.10;;;;;;;21.00;57.72;102038.44;5052588;28;20028;-89
2022/08/30 09:38:16;;;;;;;4.97;3.08;;;;;;;21.14;58.25;102031.66;5052617;28;20171;-88
2022/08/30 09:40:48;;;;;;;4.70;2.63;;;;;;;21.31;57.69;102027.47;5053213;28;20017;-88
2022/08/30 09:43:16;;;;;;;4.57;3.50;;;;;;;21.34;56.60;102029.09;5052870;28;20124;-89
2022/08/30 09:45:46;;;;;;;6.68;3.60;;;;;;;21.32;56.22;102033.63;5052942;28;20031;-88
2022/08/30 09:48:42;;;;;;;5.70;2.80;;;;;;;21.49;56.51;102024.97;5052603;28;20519;-89
2022/08/30 09:51:16;;;;;;;5.25;3.63;;;;;;;21.50;56.37;102026.69;5044121;28;20033;-89
2022/08/30 09:53:44;;;;;;;5.63;3.40;;;;;;;21.49;55.69;102024.97;5051946;28;20032;-91
2022/08/30 09:56:22;;;;;;;4.68;2.60;;;;;;;21.57;55.92;102028.97;5051329;28;20124;-89
2022/08/30 09:59:18;;;;;;;3.63;2.65;;;;;;;21.67;55.91;102033.94;5052049;28;20481;-95
2022/08/30 10:01:50;;;;;;;;;;;;;;;21.82;55.75;102033.25;5073735;28;20103;-95
2022/08/30 10:04:40;;;;;;;4.20;2.50;;;;;;;21.93;55.38;102032.78;5075179;28;19908;-96
2022/08/30 10:07:27;;;;;;;3.95;2.72;;;;;;;21.99;55.10;102032.50;5066981;28;20377;-95
2022/08/30 10:10:16;;;;;;;4.63;3.25;;;;;;;21.94;53.88;102036.25;5074289;28;20024;-96
2022/08/30 10:13:09;;;;;;;3.97;2.60;;;;;;;22.09;53.75;102024.13;5073368;28;20020;-96
2022/08/30 10:15:47;;;;;;;2.80;2.10;;;;;;;22.32;55.43;102031.03;5075043;28;20059;-96
2022/08/30 10:18:24;;;;;;;2.00;1.83;;;;;;;22.57;55.15;102025.47;5070450;28;20077;-95
2022/08/30 10:21:14;;;;;;;2.00;1.80;;;;;;;22.83;53.92;102018.94;5076507;28;20017;-95
2022/08/30 10:23:44;;;;;;;1.80;1.70;;;;;;;23.01;53.81;102026.91;5077344;28;20082;-95
2022/08/30 10:26:38;;;;;;;5.47;2.65;;;;;;;22.90;50.49;102024.78;5059936;28;20028;-96
2022/08/30 10:29:24;;;;;;;4.13;1.90;;;;;;;22.97;51.93;102018.25;5056660;28;20525;-93
2022/08/30 10:31:59;;;;;;;4.05;2.63;;;;;;;22.85;51.15;102021.53;5057127;28;20029;-96
2022/08/30 10:34:31;;;;;;;2.50;2.10;;;;;;;22.80;50.59;102016.44;5058926;28;20028;-94
2022/08/30 10:37:07;;;;;;;2.97;2.20;;;;;;;22.86;51.28;102017.06;5062329;28;20039;-94
2022/08/30 10:39:44;;;;;;;3.63;2.13;;;;;;;22.99;51.26;102018.19;5059635;28;20021;-95
2022/08/30 10:42:29;;;;;;;3.28;2.20;;;;;;;23.11;50.20;102017.59;5056651;28;20077;-94
2022/08/30 10:45:02;;;;;;;2.28;1.80;;;;;;;23.34;50.86;102014.72;5065107;28;20083;-94
2022/08/30 10:47:40;;;;;;;4.90;2.47;;;;;;;23.35;49.36;102009.38;5075635;28;20439;-96
2022/08/30 10:50:19;;;;;;;3.55;2.00;;;;;;;23.37;49.17;102007.47;5076348;28;20123;-95
2022/08/30 10:52:53;;;;;;;3.10;2.20;;;;;;;23.46;49.82;102008.81;5071899;28;20029;-93
2022/08/30 10:55:24;;;;;;;3.40;2.17;;;;;;;23.49;47.94;102007.78;5055288;28;20025;-89
2022/08/30 10:57:50;;;;;;;2.67;1.88;;;;;;;23.63;48.02;102010.56;5056256;28;20021;-91
2022/08/30 11:00:27;;;;;;;2.08;1.88;;;;;;;23.77;48.20;102012.50;5056197;28;20029;-90
2022/08/30 11:03:02;;;;;;;2.35;1.70;;;;;;;23.87;48.55;101997.81;5054960;28;20119;-90
2022/08/30 11:05:30;;;;;;;3.22;2.00;;;;;;;23.91;48.42;102015.28;5071101;28;20115;-96
2022/08/30 11:08:24;;;;;;;3.65;2.35;;;;;;;23.56;47.08;102004.75;5073063;28;20025;-88
2022/08/30 11:11:20;;;;;;;4.15;2.10;;;;;;;23.55;48.49;102003.03;5075074;28;20484;-88
2022/08/30 11:13:47;;;;;;;3.05;2.03;;;;;;;23.67;47.49;102003.31;5075084;28;20024;-91
2022/08/30 11:16:15;;;;;;;3.72;2.20;;;;;;;23.69;48.02;102010.28;5075166;28;20021;-88
2022/08/30 11:18:45;;;;;;;2.15;1.88;;;;;;;23.87;48.28;102007.56;5075623;28;20028;-90
2022/08/30 11:21:31;;;;;;;4.53;2.22;;;;;;;23.83;46.51;102003.38;5068116;28;20029;-94
2022/08/30 11:24:07;;;;;;;3.40;2.10;;;;;;;23.84;47.78;102002.44;5054607;28;20062;-94
2022/08/30 11:26:44;;;;;;;3.60;2.13;;;;;;;23.75;46.72;102006.44;5055812;28;20049;-93
2022/08/30 11:29:28;;;;;;;2.90;2.00;;;;;;;23.71;48.34;102004.88;5055272;28;20029;-92
2022/08/30 11:31:55;;;;;;;2.70;1.80;;;;;;;23.84;48.12;102002.44;5060117;28;20111;-93
2022/08/30 11:34:45;;;;;;;2.95;1.90;;;;;;;23.96;46.70;102011.56;5062682;28;20033;-94
2022/08/30 11:37:29;;;;;;;3.60;2.20;;;;;;;23.88;45.88;102004.84;5061013;28;20036;-91
2022/08/30 11:39:58;;;;;;;1.92;1.73;;;;;;;24.10;48.25;101995.75;5056457;28;20028;-92
2022/08/30 11:42:39;;;;;;;3.40;2.00;;;;;;;24.27;46.59;101996.63;5055646;28;20030;-93